sensor_id;sensor_type;location;lat;lon;timestamp;pressure;altitude;pressure_sealevel;temperature;humidity
61018;BME280;48171;51.550;5.434;2023-05-25T00:00:12;102568.34;;;10.88;94.01
61018;BME280;48171;51.550;5.434;2023-05-25T00:02:38;102563.94;;;10.87;94.33
61018;BME280;48171;51.550;5.434;2023-05-25T00:05:09;102570.06;;;10.86;94.12
61018;BME280;48171;51.550;5.434;2023-05-25T00:07:35;102567.31;;;10.80;93.99
61018;BME280;48171;51.550;5.434;2023-05-25T00:10:00;102564.72;;;10.81;94.26
61018;BME280;48171;51.550;5.434;2023-05-25T00:12:25;102562.03;;;10.80;93.81
61018;BME280;48171;51.550;5.434;2023-05-25T00:14:51;102565.44;;;10.74;94.44
61018;BME280;48171;51.550;5.434;2023-05-25T00:17:16;102561.88;;;10.72;95.03
61018;BME280;48171;51.550;5.434;2023-05-25T00:19:43;102564.56;;;10.74;95.12
61018;BME280;48171;51.550;5.434;2023-05-25T00:22:08;102556.56;;;10.71;94.91
61018;BME280;48171;51.550;5.434;2023-05-25T00:24:34;102566.31;;;10.73;94.89
61018;BME280;48171;51.550;5.434;2023-05-25T00:27:00;102560.97;;;10.72;95.46
61018;BME280;48171;51.550;5.434;2023-05-25T00:29:26;102564.56;;;10.74;96.05
61018;BME280;48171;51.550;5.434;2023-05-25T00:31:52;102566.19;;;10.67;94.59
61018;BME280;48171;51.550;5.434;2023-05-25T00:34:17;102565.25;;;10.65;94.62
61018;BME280;48171;51.550;5.434;2023-05-25T00:36:43;102564.38;;;10.66;95.69
61018;BME280;48171;51.550;5.434;2023-05-25T00:39:08;102557.34;;;10.65;94.99
61018;BME280;48171;51.550;5.434;2023-05-25T00:41:36;102570.59;;;10.68;95.77
61018;BME280;48171;51.550;5.434;2023-05-25T00:44:06;102575.88;;;10.68;95.51
61018;BME280;48171;51.550;5.434;2023-05-25T00:46:33;102570.56;;;10.65;94.25
61018;BME280;48171;51.550;5.434;2023-05-25T00:48:59;102565.19;;;10.60;94.42
61018;BME280;48171;51.550;5.434;2023-05-25T00:51:25;102569.59;;;10.61;95.38
61018;BME280;48171;51.550;5.434;2023-05-25T00:53:51;102558.19;;;10.63;94.82
61018;BME280;48171;51.550;5.434;2023-05-25T00:56:18;102560.84;;;10.66;95.18
61018;BME280;48171;51.550;5.434;2023-05-25T00:58:46;102568.06;;;10.74;93.05
61018;BME280;48171;51.550;5.434;2023-05-25T01:01:14;102567.94;;;10.68;94.16
61018;BME280;48171;51.550;5.434;2023-05-25T01:03:41;102571.50;;;10.69;94.62
61018;BME280;48171;51.550;5.434;2023-05-25T01:06:11;102579.44;;;10.70;94.19
61018;BME280;48171;51.550;5.434;2023-05-25T01:08:41;102577.69;;;10.69;94.93
61018;BME280;48171;51.550;5.434;2023-05-25T01:11:09;102576.94;;;10.75;92.82
61018;BME280;48171;51.550;5.434;2023-05-25T01:13:37;102582.06;;;10.67;94.30
61018;BME280;48171;51.550;5.434;2023-05-25T01:16:05;102574.03;;;10.64;94.81
61018;BME280;48171;51.550;5.434;2023-05-25T01:18:30;102574.03;;;10.64;95.45
61018;BME280;48171;51.550;5.434;2023-05-25T01:23:32;102578.47;;;10.65;95.04
61018;BME280;48171;51.550;5.434;2023-05-25T01:26:00;102584.47;;;10.58;93.89
61018;BME280;48171;51.550;5.434;2023-05-25T01:28:31;102591.50;;;10.56;93.57
61018;BME280;48171;51.550;5.434;2023-05-25T01:31:01;102593.06;;;10.48;93.55
61018;BME280;48171;51.550;5.434;2023-05-25T01:33:27;102600.84;;;10.40;93.54
61018;BME280;48171;51.550;5.434;2023-05-25T01:35:53;102597.22;;;10.35;93.79
61018;BME280;48171;51.550;5.434;2023-05-25T01:38:18;102603.34;;;10.34;93.76
61018;BME280;48171;51.550;5.434;2023-05-25T01:40:44;102599.03;;;10.37;94.83
61018;BME280;48171;51.550;5.434;2023-05-25T01:43:09;102593.69;;;10.36;94.00
61018;BME280;48171;51.550;5.434;2023-05-25T01:45:35;102598.09;;;10.35;94.34
61018;BME280;48171;51.550;5.434;2023-05-25T01:48:16;102601.50;;;10.30;94.10
61018;BME280;48171;51.550;5.434;2023-05-25T01:53:18;102607.47;;;10.23;95.37
61018;BME280;48171;51.550;5.434;2023-05-25T01:55:54;102608.31;;;10.21;94.65
61018;BME280;48171;51.550;5.434;2023-05-25T01:58:23;102599.56;;;10.23;96.00
61018;BME280;48171;51.550;5.434;2023-05-25T02:00:50;102603.78;;;10.16;94.82
61018;BME280;48171;51.550;5.434;2023-05-25T02:03:16;102600.19;;;10.12;95.08
61018;BME280;48171;51.550;5.434;2023-05-25T02:05:42;102600.16;;;10.11;95.08
61018;BME280;48171;51.550;5.434;2023-05-25T02:08:08;102608.91;;;10.08;95.23
61018;BME280;48171;51.550;5.434;2023-05-25T02:10:33;102607.97;;;10.06;95.27
61018;BME280;48171;51.550;5.434;2023-05-25T02:12:58;102608.88;;;10.07;95.39
61018;BME280;48171;51.550;5.434;2023-05-25T02:15:23;102603.59;;;10.07;95.63
61018;BME280;48171;51.550;5.434;2023-05-25T02:17:49;102601.81;;;10.07;95.79
61018;BME280;48171;51.550;5.434;2023-05-25T02:20:15;102600.06;;;10.08;95.55
61018;BME280;48171;51.550;5.434;2023-05-25T02:22:40;102600.94;;;10.07;96.04
61018;BME280;48171;51.550;5.434;2023-05-25T02:25:06;102600.06;;;10.08;95.84
61018;BME280;48171;51.550;5.434;2023-05-25T02:27:34;102606.13;;;10.04;95.45
61018;BME280;48171;51.550;5.434;2023-05-25T02:29:59;102603.34;;;9.97;95.15
61018;BME280;48171;51.550;5.434;2023-05-25T02:32:25;102606.69;;;9.89;96.19
61018;BME280;48171;51.550;5.434;2023-05-25T02:34:50;102603.06;;;9.85;96.35
61018;BME280;48171;51.550;5.434;2023-05-25T02:37:15;102599.44;;;9.80;95.89
61018;BME280;48171;51.550;5.434;2023-05-25T02:39:40;102608.81;;;9.69;96.26
61018;BME280;48171;51.550;5.434;2023-05-25T02:42:06;102605.97;;;9.59;96.61
61018;BME280;48171;51.550;5.434;2023-05-25T02:44:31;102602.22;;;9.51;97.41
61018;BME280;48171;51.550;5.434;2023-05-25T02:46:57;102600.41;;;9.49;97.65
61018;BME280;48171;51.550;5.434;2023-05-25T02:49:22;102611.03;;;9.52;97.50
61018;BME280;48171;51.550;5.434;2023-05-25T02:51:47;102605.75;;;9.52;98.46
61018;BME280;48171;51.550;5.434;2023-05-25T02:54:12;102598.84;;;9.57;98.81
61018;BME280;48171;51.550;5.434;2023-05-25T02:56:38;102606.03;;;9.63;99.00
61018;BME280;48171;51.550;5.434;2023-05-25T02:59:03;102601.63;;;9.63;96.95
61018;BME280;48171;51.550;5.434;2023-05-25T03:01:28;102606.03;;;9.63;96.47
61018;BME280;48171;51.550;5.434;2023-05-25T03:03:55;102598.19;;;9.66;97.85
61018;BME280;48171;51.550;5.434;2023-05-25T03:06:20;102599.91;;;9.64;96.81
61018;BME280;48171;51.550;5.434;2023-05-25T03:08:47;102606.97;;;9.65;96.84
61018;BME280;48171;51.550;5.434;2023-05-25T03:11:12;102607.75;;;9.60;96.59
61018;BME280;48171;51.550;5.434;2023-05-25T03:13:37;102611.09;;;9.53;96.39
61018;BME280;48171;51.550;5.434;2023-05-25T03:16:03;102615.06;;;9.37;96.69
61018;BME280;48171;51.550;5.434;2023-05-25T03:18:28;102623.88;;;9.38;98.40
61018;BME280;48171;51.550;5.434;2023-05-25T03:20:54;102623.88;;;9.38;97.45
61018;BME280;48171;51.550;5.434;2023-05-25T03:23:19;102623.16;;;9.44;99.70
61018;BME280;48171;51.550;5.434;2023-05-25T03:25:45;102624.03;;;9.44;97.68
61018;BME280;48171;51.550;5.434;2023-05-25T03:28:10;102634.41;;;9.38;97.60
61018;BME280;48171;51.550;5.434;2023-05-25T03:30:35;102634.31;;;9.33;97.77
61018;BME280;48171;51.550;5.434;2023-05-25T03:33:01;102642.06;;;9.27;97.56
61018;BME280;48171;51.550;5.434;2023-05-25T03:35:26;102642.63;;;9.17;97.86
61018;BME280;48171;51.550;5.434;2023-05-25T03:37:51;102648.66;;;9.13;98.60
61018;BME280;48171;51.550;5.434;2023-05-25T03:40:16;102639.97;;;9.15;98.61
61018;BME280;48171;51.550;5.434;2023-05-25T03:42:42;102649.81;;;9.23;99.72
61018;BME280;48171;51.550;5.434;2023-05-25T03:45:07;102650.75;;;9.25;99.47
61018;BME280;48171;51.550;5.434;2023-05-25T03:47:34;102646.28;;;9.22;98.33
61018;BME280;48171;51.550;5.434;2023-05-25T03:50:00;102644.47;;;9.19;98.25
61018;BME280;48171;51.550;5.434;2023-05-25T03:52:25;102643.53;;;9.17;98.35
61018;BME280;48171;51.550;5.434;2023-05-25T03:54:50;102652.22;;;9.15;98.75
61018;BME280;48171;51.550;5.434;2023-05-25T03:57:16;102652.34;;;9.18;99.45
61018;BME280;48171;51.550;5.434;2023-05-25T03:59:41;102662.78;;;9.15;99.10
61018;BME280;48171;51.550;5.434;2023-05-25T04:02:06;102663.69;;;9.15;99.15
61018;BME280;48171;51.550;5.434;2023-05-25T04:04:31;102671.63;;;9.17;99.39
61018;BME280;48171;51.550;5.434;2023-05-25T04:06:57;102660.13;;;9.13;99.41
61018;BME280;48171;51.550;5.434;2023-05-25T04:09:22;102662.13;;;9.22;99.60
61018;BME280;48171;51.550;5.434;2023-05-25T04:11:47;102668.22;;;9.19;98.91
61018;BME280;48171;51.550;5.434;2023-05-25T04:14:12;102661.09;;;9.17;99.40
61018;BME280;48171;51.550;5.434;2023-05-25T04:16:38;102660.16;;;9.15;99.42
61018;BME280;48171;51.550;5.434;2023-05-25T04:19:05;102658.44;;;9.17;99.98
61018;BME280;48171;51.550;5.434;2023-05-25T04:21:30;102660.31;;;9.19;100.00
61018;BME280;48171;51.550;5.434;2023-05-25T04:23:56;102661.13;;;9.18;100.00
61018;BME280;48171;51.550;5.434;2023-05-25T04:26:21;102665.63;;;9.23;100.00
61018;BME280;48171;51.550;5.434;2023-05-25T04:28:47;102663.91;;;9.23;100.00
61018;BME280;48171;51.550;5.434;2023-05-25T04:31:12;102667.41;;;9.22;100.00
61018;BME280;48171;51.550;5.434;2023-05-25T04:33:37;102671.00;;;9.26;100.00
61018;BME280;48171;51.550;5.434;2023-05-25T04:36:06;102669.25;;;9.26;100.00
61018;BME280;48171;51.550;5.434;2023-05-25T04:38:33;102671.06;;;9.27;100.00
61018;BME280;48171;51.550;5.434;2023-05-25T04:40:58;102670.31;;;9.33;100.00
61018;BME280;48171;51.550;5.434;2023-05-25T04:43:26;102679.22;;;9.36;100.00
61018;BME280;48171;51.550;5.434;2023-05-25T04:45:51;102674.03;;;9.39;100.00
61018;BME280;48171;51.550;5.434;2023-05-25T04:48:18;102669.75;;;9.45;100.00
61018;BME280;48171;51.550;5.434;2023-05-25T04:50:43;102675.94;;;9.45;100.00
61018;BME280;48171;51.550;5.434;2023-05-25T04:53:08;102681.31;;;9.48;100.00
61018;BME280;48171;51.550;5.434;2023-05-25T04:55:34;102678.72;;;9.50;100.00
61018;BME280;48171;51.550;5.434;2023-05-25T04:58:00;102678.72;;;9.51;100.00
61018;BME280;48171;51.550;5.434;2023-05-25T05:00:25;102685.00;;;9.55;100.00
61018;BME280;48171;51.550;5.434;2023-05-25T05:02:50;102686.75;;;9.54;100.00
61018;BME280;48171;51.550;5.434;2023-05-25T05:05:16;102696.31;;;9.51;100.00
61018;BME280;48171;51.550;5.434;2023-05-25T05:07:42;102692.75;;;9.49;100.00
61018;BME280;48171;51.550;5.434;2023-05-25T05:10:07;102691.00;;;9.49;100.00
61018;BME280;48171;51.550;5.434;2023-05-25T05:12:33;102693.63;;;9.48;100.00
61018;BME280;48171;51.550;5.434;2023-05-25T05:14:58;102694.44;;;9.47;100.00
61018;BME280;48171;51.550;5.434;2023-05-25T05:17:23;102694.53;;;9.50;100.00
61018;BME280;48171;51.550;5.434;2023-05-25T05:19:50;102696.38;;;9.52;100.00
61018;BME280;48171;51.550;5.434;2023-05-25T05:22:15;102696.41;;;9.54;100.00
61018;BME280;48171;51.550;5.434;2023-05-25T05:24:41;102697.31;;;9.54;100.00
61018;BME280;48171;51.550;5.434;2023-05-25T05:27:06;102698.22;;;9.56;100.00
61018;BME280;48171;51.550;5.434;2023-05-25T05:29:31;102699.16;;;9.58;100.00
61018;BME280;48171;51.550;5.434;2023-05-25T05:31:58;102709.81;;;9.61;100.00
61018;BME280;48171;51.550;5.434;2023-05-25T05:34:24;102706.41;;;9.66;100.00
61018;BME280;48171;51.550;5.434;2023-05-25T05:36:49;102706.47;;;9.69;100.00
61018;BME280;48171;51.550;5.434;2023-05-25T05:39:15;102710.09;;;9.72;100.00
61018;BME280;48171;51.550;5.434;2023-05-25T05:41:40;102720.78;;;9.77;100.00
61018;BME280;48171;51.550;5.434;2023-05-25T05:44:07;102721.69;;;9.79;100.00
61018;BME280;48171;51.550;5.434;2023-05-25T05:46:33;102720.09;;;9.84;100.00
61018;BME280;48171;51.550;5.434;2023-05-25T05:48:58;102729.00;;;9.88;100.00
61018;BME280;48171;51.550;5.434;2023-05-25T05:51:23;102729.94;;;9.91;100.00
61018;BME280;48171;51.550;5.434;2023-05-25T05:53:49;102730.00;;;9.93;100.00
61018;BME280;48171;51.550;5.434;2023-05-25T05:56:18;102731.81;;;9.95;100.00
61018;BME280;48171;51.550;5.434;2023-05-25T05:58:43;102736.31;;;9.98;100.00
61018;BME280;48171;51.550;5.434;2023-05-25T06:01:09;102742.53;;;10.01;100.00
61018;BME280;48171;51.550;5.434;2023-05-25T06:03:34;102735.53;;;10.04;100.00
61018;BME280;48171;51.550;5.434;2023-05-25T06:06:00;102742.69;;;10.08;100.00
61018;BME280;48171;51.550;5.434;2023-05-25T06:08:25;102744.56;;;10.12;100.00
61018;BME280;48171;51.550;5.434;2023-05-25T06:10:51;102747.28;;;10.15;100.00
61018;BME280;48171;51.550;5.434;2023-05-25T06:13:16;102744.69;;;10.16;100.00
61018;BME280;48171;51.550;5.434;2023-05-25T06:15:42;102749.09;;;10.17;100.00
61018;BME280;48171;51.550;5.434;2023-05-25T06:18:07;102743.09;;;10.23;100.00
61018;BME280;48171;51.550;5.434;2023-05-25T06:20:33;102752.88;;;10.27;100.00
61018;BME280;48171;51.550;5.434;2023-05-25T06:22:59;102751.16;;;10.29;100.00
61018;BME280;48171;51.550;5.434;2023-05-25T06:25:25;102752.19;;;10.33;100.00
61018;BME280;48171;51.550;5.434;2023-05-25T06:27:50;102751.44;;;10.38;100.00
61018;BME280;48171;51.550;5.434;2023-05-25T06:30:16;102755.00;;;10.40;100.00
61018;BME280;48171;51.550;5.434;2023-05-25T06:32:41;102761.25;;;10.44;100.00
61018;BME280;48171;51.550;5.434;2023-05-25T06:35:07;102754.34;;;10.49;100.00
61018;BME280;48171;51.550;5.434;2023-05-25T06:37:33;102757.06;;;10.54;100.00
61018;BME280;48171;51.550;5.434;2023-05-25T06:40:02;102766.88;;;10.58;100.00
61018;BME280;48171;51.550;5.434;2023-05-25T06:42:28;102768.78;;;10.64;100.00
61018;BME280;48171;51.550;5.434;2023-05-25T06:44:54;102780.38;;;10.70;100.00
61018;BME280;48171;51.550;5.434;2023-05-25T06:47:20;102772.59;;;10.76;100.00
61018;BME280;48171;51.550;5.434;2023-05-25T06:49:45;102778.88;;;10.81;100.00
61018;BME280;48171;51.550;5.434;2023-05-25T06:52:10;102779.84;;;10.85;100.00
61018;BME280;48171;51.550;5.434;2023-05-25T06:54:35;102787.06;;;10.92;100.00
61018;BME280;48171;51.550;5.434;2023-05-25T06:57:01;102779.25;;;10.97;100.00
61018;BME280;48171;51.550;5.434;2023-05-25T06:59:27;102781.09;;;11.01;100.00
61018;BME280;48171;51.550;5.434;2023-05-25T07:01:52;102764.22;;;10.96;100.00
61018;BME280;48171;51.550;5.434;2023-05-25T07:04:18;102772.38;;;11.05;100.00
61018;BME280;48171;51.550;5.434;2023-05-25T07:06:43;102769.81;;;11.10;100.00
61018;BME280;48171;51.550;5.434;2023-05-25T07:09:08;102780.50;;;11.14;100.00
61018;BME280;48171;51.550;5.434;2023-05-25T07:11:34;102779.78;;;11.21;100.00
61018;BME280;48171;51.550;5.434;2023-05-25T07:13:59;102782.59;;;11.29;100.00
61018;BME280;48171;51.550;5.434;2023-05-25T07:16:25;102782.72;;;11.37;100.00
61018;BME280;48171;51.550;5.434;2023-05-25T07:18:50;102787.28;;;11.43;100.00
61018;BME280;48171;51.550;5.434;2023-05-25T07:21:15;102786.47;;;11.47;100.00
61018;BME280;48171;51.550;5.434;2023-05-25T07:23:41;102772.34;;;11.46;99.17
61018;BME280;48171;51.550;5.434;2023-05-25T07:26:07;102783.16;;;11.55;99.50
61018;BME280;48171;51.550;5.434;2023-05-25T07:28:32;102787.59;;;11.58;99.92
61018;BME280;48171;51.550;5.434;2023-05-25T07:30:57;102792.94;;;11.61;100.00
61018;BME280;48171;51.550;5.434;2023-05-25T07:33:23;102787.75;;;11.66;98.47
61018;BME280;48171;51.550;5.434;2023-05-25T07:35:48;102784.31;;;11.70;97.34
61018;BME280;48171;51.550;5.434;2023-05-25T07:38:15;102794.94;;;11.73;97.91
61018;BME280;48171;51.550;5.434;2023-05-25T07:40:40;102797.66;;;11.77;98.46
61018;BME280;48171;51.550;5.434;2023-05-25T07:43:06;102793.34;;;11.81;96.55
61018;BME280;48171;51.550;5.434;2023-05-25T07:45:31;102799.59;;;11.85;95.93
61018;BME280;48171;51.550;5.434;2023-05-25T07:47:56;102789.94;;;11.88;95.16
61018;BME280;48171;51.550;5.434;2023-05-25T07:50:23;102788.28;;;11.92;95.72
61018;BME280;48171;51.550;5.434;2023-05-25T07:52:48;102791.88;;;11.95;94.96
61018;BME280;48171;51.550;5.434;2023-05-25T07:55:13;102796.34;;;11.99;94.99
61018;BME280;48171;51.550;5.434;2023-05-25T07:57:39;102796.41;;;12.01;94.65
61018;BME280;48171;51.550;5.434;2023-05-25T08:00:04;102793.78;;;12.03;94.45
61018;BME280;48171;51.550;5.434;2023-05-25T08:02:32;102792.97;;;12.07;94.14
61018;BME280;48171;51.550;5.434;2023-05-25T08:04:57;102794.75;;;12.08;93.36
61018;BME280;48171;51.550;5.434;2023-05-25T08:07:26;102798.34;;;12.11;92.82
61018;BME280;48171;51.550;5.434;2023-05-25T08:09:51;102803.75;;;12.16;92.86
61018;BME280;48171;51.550;5.434;2023-05-25T08:12:16;102807.31;;;12.18;92.77
61018;BME280;48171;51.550;5.434;2023-05-25T08:14:41;102803.06;;;12.28;92.05
61018;BME280;48171;51.550;5.434;2023-05-25T08:17:07;102796.16;;;12.37;94.69
61018;BME280;48171;51.550;5.434;2023-05-25T08:19:32;102799.84;;;12.47;93.84
61018;BME280;48171;51.550;5.434;2023-05-25T08:21:58;102813.28;;;12.58;94.96
61018;BME280;48171;51.550;5.434;2023-05-25T08:24:23;102803.69;;;12.66;92.31
61018;BME280;48171;51.550;5.434;2023-05-25T08:26:49;102798.47;;;12.71;94.55
61018;BME280;48171;51.550;5.434;2023-05-25T08:29:14;102806.59;;;12.81;91.27
61018;BME280;48171;51.550;5.434;2023-05-25T08:31:40;102814.66;;;12.88;90.87
61018;BME280;48171;51.550;5.434;2023-05-25T08:34:26;102817.31;;;12.89;91.28
61018;BME280;48171;51.550;5.434;2023-05-25T08:36:53;102818.19;;;12.87;87.89
61018;BME280;48171;51.550;5.434;2023-05-25T08:39:18;102812.88;;;12.87;87.64
61018;BME280;48171;51.550;5.434;2023-05-25T08:41:44;102819.91;;;12.86;86.07
61018;BME280;48171;51.550;5.434;2023-05-25T08:44:10;102817.31;;;12.89;88.41
61018;BME280;48171;51.550;5.434;2023-05-25T08:46:35;102814.66;;;12.88;89.04
61018;BME280;48171;51.550;5.434;2023-05-25T08:49:08;102818.28;;;12.94;87.87
61018;BME280;48171;51.550;5.434;2023-05-25T08:51:35;102819.19;;;12.96;88.67
61018;BME280;48171;51.550;5.434;2023-05-25T08:54:12;102810.44;;;13.02;88.74
61018;BME280;48171;51.550;5.434;2023-05-25T08:56:48;102811.38;;;13.06;85.81
61018;BME280;48171;51.550;5.434;2023-05-25T09:01:57;102822.91;;;13.08;84.20
61018;BME280;48171;51.550;5.434;2023-05-25T09:04:26;102827.34;;;13.10;86.50
61018;BME280;48171;51.550;5.434;2023-05-25T09:06:52;102823.84;;;13.11;84.43
61018;BME280;48171;51.550;5.434;2023-05-25T09:09:17;102830.94;;;13.14;83.44
61018;BME280;48171;51.550;5.434;2023-05-25T09:11:43;102821.25;;;13.16;84.81
61018;BME280;48171;51.550;5.434;2023-05-25T09:14:09;102824.88;;;13.23;86.44
61018;BME280;48171;51.550;5.434;2023-05-25T09:16:36;102829.34;;;13.25;84.59
61018;BME280;48171;51.550;5.434;2023-05-25T09:19:02;102827.59;;;13.27;85.61
61018;BME280;48171;51.550;5.434;2023-05-25T09:21:27;102827.66;;;13.30;84.37
61018;BME280;48171;51.550;5.434;2023-05-25T09:23:52;102833.03;;;13.33;83.12
61018;BME280;48171;51.550;5.434;2023-05-25T09:26:18;102831.31;;;13.38;84.33
61018;BME280;48171;51.550;5.434;2023-05-25T09:28:47;102824.22;;;13.39;86.29
61018;BME280;48171;51.550;5.434;2023-05-25T09:31:14;102827.84;;;13.43;84.45
61018;BME280;48171;51.550;5.434;2023-05-25T09:33:40;102839.41;;;13.48;83.02
61018;BME280;48171;51.550;5.434;2023-05-25T09:36:06;102826.09;;;13.45;83.62
61018;BME280;48171;51.550;5.434;2023-05-25T09:38:32;102828.81;;;13.49;84.69
61018;BME280;48171;51.550;5.434;2023-05-25T09:40:57;102835.91;;;13.50;85.24
61018;BME280;48171;51.550;5.434;2023-05-25T09:43:23;102836.78;;;13.49;84.98
61018;BME280;48171;51.550;5.434;2023-05-25T09:45:51;102835.88;;;13.49;81.30
61018;BME280;48171;51.550;5.434;2023-05-25T09:48:16;102843.00;;;13.50;82.78
61018;BME280;48171;51.550;5.434;2023-05-25T09:50:42;102842.09;;;13.49;81.25
61018;BME280;48171;51.550;5.434;2023-05-25T09:53:08;102839.44;;;13.49;82.58
61018;BME280;48171;51.550;5.434;2023-05-25T09:55:35;102837.72;;;13.51;80.89
61018;BME280;48171;51.550;5.434;2023-05-25T09:58:00;102839.44;;;13.49;81.17
61018;BME280;48171;51.550;5.434;2023-05-25T10:00:26;102839.44;;;13.51;82.83
61018;BME280;48171;51.550;5.434;2023-05-25T10:02:51;102838.63;;;13.53;82.03
61018;BME280;48171;51.550;5.434;2023-05-25T10:05:17;102844.00;;;13.61;86.21
61018;BME280;48171;51.550;5.434;2023-05-25T10:07:46;102845.84;;;13.67;83.51
61018;BME280;48171;51.550;5.434;2023-05-25T10:10:13;102845.06;;;13.74;85.02
61018;BME280;48171;51.550;5.434;2023-05-25T10:12:43;102841.53;;;13.76;80.07
61018;BME280;48171;51.550;5.434;2023-05-25T10:15:10;102849.56;;;13.81;83.04
61018;BME280;48171;51.550;5.434;2023-05-25T10:17:42;102845.09;;;13.78;79.66
61018;BME280;48171;51.550;5.434;2023-05-25T10:20:08;102838.03;;;13.80;81.09
61018;BME280;48171;51.550;5.434;2023-05-25T10:22:50;102850.50;;;13.86;81.36
61018;BME280;48171;51.550;5.434;2023-05-25T10:25:25;102839.94;;;13.91;81.49
61018;BME280;48171;51.550;5.434;2023-05-25T10:28:01;102855.97;;;13.98;79.49
61018;BME280;48171;51.550;5.434;2023-05-25T10:30:29;102848.94;;;14.02;79.30
61018;BME280;48171;51.550;5.434;2023-05-25T10:32:54;102847.19;;;14.04;77.77
61018;BME280;48171;51.550;5.434;2023-05-25T10:35:23;102838.31;;;14.05;77.53
61018;BME280;48171;51.550;5.434;2023-05-25T10:37:53;102836.59;;;14.09;77.40
61018;BME280;48171;51.550;5.434;2023-05-25T10:40:22;102844.66;;;14.16;79.65
61018;BME280;48171;51.550;5.434;2023-05-25T10:42:49;102842.06;;;14.26;76.92
61018;BME280;48171;51.550;5.434;2023-05-25T10:45:15;102842.13;;;14.33;76.09
61018;BME280;48171;51.550;5.434;2023-05-25T10:47:40;102843.09;;;14.41;80.59
61018;BME280;48171;51.550;5.434;2023-05-25T10:50:17;102836.94;;;14.46;79.56
61018;BME280;48171;51.550;5.434;2023-05-25T10:52:43;102844.91;;;14.46;76.08
61018;BME280;48171;51.550;5.434;2023-05-25T10:55:08;102854.72;;;14.48;79.75
61018;BME280;48171;51.550;5.434;2023-05-25T10:57:33;102844.94;;;14.44;73.01
61018;BME280;48171;51.550;5.434;2023-05-25T11:00:01;102852.88;;;14.43;77.25
61018;BME280;48171;51.550;5.434;2023-05-25T11:02:30;102844.91;;;14.46;76.34
61018;BME280;48171;51.550;5.434;2023-05-25T11:05:36;102837.06;;;14.58;81.84
61018;BME280;48171;51.550;5.434;2023-05-25T11:08:02;102845.16;;;14.67;80.32
61018;BME280;48171;51.550;5.434;2023-05-25T11:16:15;102838.09;;;14.71;75.81
61018;BME280;48171;51.550;5.434;2023-05-25T11:18:49;102842.50;;;14.72;75.29
61018;BME280;48171;51.550;5.434;2023-05-25T11:24:02;102839.88;;;14.75;74.70
61018;BME280;48171;51.550;5.434;2023-05-25T11:26:34;102831.94;;;14.79;72.70
61018;BME280;48171;51.550;5.434;2023-05-25T11:29:05;102820.47;;;14.87;74.73
61018;BME280;48171;51.550;5.434;2023-05-25T11:31:35;102824.09;;;14.99;76.94
61018;BME280;48171;51.550;5.434;2023-05-25T11:34:02;102822.38;;;15.09;74.66
61018;BME280;48171;51.550;5.434;2023-05-25T11:36:33;102823.31;;;15.17;74.34
61018;BME280;48171;51.550;5.434;2023-05-25T11:38:59;102814.47;;;15.22;72.94
61018;BME280;48171;51.550;5.434;2023-05-25T11:41:26;102816.25;;;15.21;72.54
61018;BME280;48171;51.550;5.434;2023-05-25T11:43:52;102809.13;;;15.17;69.29
61018;BME280;48171;51.550;5.434;2023-05-25T11:46:18;102817.06;;;15.14;73.79
61018;BME280;48171;51.550;5.434;2023-05-25T11:48:49;102811.72;;;15.09;74.31
61018;BME280;48171;51.550;5.434;2023-05-25T11:51:16;102819.72;;;15.09;75.92
61018;BME280;48171;51.550;5.434;2023-05-25T11:53:43;102810.81;;;15.06;70.64
61018;BME280;48171;51.550;5.434;2023-05-25T11:56:10;102811.69;;;15.06;74.12
61018;BME280;48171;51.550;5.434;2023-05-25T11:58:35;102808.13;;;15.04;71.54
61018;BME280;48171;51.550;5.434;2023-05-25T12:01:17;102810.81;;;15.06;73.26
61018;BME280;48171;51.550;5.434;2023-05-25T12:03:47;102800.16;;;15.04;70.96
61018;BME280;48171;51.550;5.434;2023-05-25T12:06:26;102801.97;;;15.11;73.24
61018;BME280;48171;51.550;5.434;2023-05-25T12:08:56;102806.41;;;15.09;71.60
61018;BME280;48171;51.550;5.434;2023-05-25T12:11:29;102803.75;;;15.11;71.34
61018;BME280;48171;51.550;5.434;2023-05-25T12:13:56;102790.44;;;15.11;74.13
61018;BME280;48171;51.550;5.434;2023-05-25T12:16:22;102794.88;;;15.13;74.38
61018;BME280;48171;51.550;5.434;2023-05-25T12:18:49;102794.91;;;15.18;75.04
61018;BME280;48171;51.550;5.434;2023-05-25T12:21:15;102784.28;;;15.26;71.34
61018;BME280;48171;51.550;5.434;2023-05-25T12:23:40;102783.47;;;15.37;68.40
61018;BME280;48171;51.550;5.434;2023-05-25T12:26:08;102779.97;;;15.49;72.58
61018;BME280;48171;51.550;5.434;2023-05-25T12:28:35;102775.53;;;15.54;72.39
61018;BME280;48171;51.550;5.434;2023-05-25T12:31:24;102780.88;;;15.56;73.46
61018;BME280;48171;51.550;5.434;2023-05-25T12:36:52;102782.66;;;15.63;73.96
61018;BME280;48171;51.550;5.434;2023-05-25T12:41:57;102780.88;;;15.67;70.66
61018;BME280;48171;51.550;5.434;2023-05-25T12:44:32;102788.91;;;15.68;70.60
61018;BME280;48171;51.550;5.434;2023-05-25T12:47:19;102781.78;;;15.67;71.18
61018;BME280;48171;51.550;5.434;2023-05-25T12:49:50;102787.97;;;15.63;68.60
61018;BME280;48171;51.550;5.434;2023-05-25T12:52:31;102783.53;;;15.62;68.15
61018;BME280;48171;51.550;5.434;2023-05-25T12:54:57;102780.88;;;15.60;71.16
61018;BME280;48171;51.550;5.434;2023-05-25T12:57:33;102775.56;;;15.64;70.82
61018;BME280;48171;51.550;5.434;2023-05-25T12:59:59;102776.44;;;15.64;71.35
61018;BME280;48171;51.550;5.434;2023-05-25T13:02:24;102772.88;;;15.67;71.51
61018;BME280;48171;51.550;5.434;2023-05-25T13:04:50;102770.25;;;15.68;73.40
61018;BME280;48171;51.550;5.434;2023-05-25T13:07:15;102765.78;;;15.69;73.14
61018;BME280;48171;51.550;5.434;2023-05-25T13:09:41;102769.34;;;15.69;73.13